Aviation Digital Data Service (ADDS)

Output produced by METARs form (2127 UTC 08 August 2020)
found at http://www.aviationweather.gov/metar/data/
 
TAF KRIV 082000Z 0820/1002 31009KT 9999 SKC 510009 QNH2995INS 
     TEMPO 0821/0902 31012G20KT 
     BECMG 0903/0904 VRB04KT 9999 SKC QNH2997INS 
     BECMG 0918/0919 31009KT 9999 SKC 510009 QNH2990INS 
     TEMPO 0921/1002 31012G20KT TX33/0822Z TN13/0913Z